createdAt,value
2023-02-07T00:01:25.711Z,7.53
2023-02-07T00:03:52.899Z,7.25
2023-02-07T00:06:24.665Z,6.77
2023-02-07T00:08:52.858Z,7.22
2023-02-07T00:11:21.121Z,6.25
2023-02-07T00:13:50.217Z,7.13
2023-02-07T00:16:17.124Z,6.50
2023-02-07T00:18:44.171Z,5.90
2023-02-07T00:21:14.258Z,6.97
2023-02-07T00:23:41.712Z,7.32
2023-02-07T00:26:09.262Z,8.48
2023-02-07T00:28:37.033Z,7.15
2023-02-07T00:31:06.813Z,6.37
2023-02-07T00:33:35.452Z,7.35
2023-02-07T00:36:05.402Z,6.95
2023-02-07T00:38:32.136Z,7.40
2023-02-07T00:40:59.070Z,6.50
2023-02-07T00:43:29.848Z,7.57
2023-02-07T00:46:01.352Z,7.50
2023-02-07T00:48:28.935Z,6.97
2023-02-07T00:50:56.216Z,6.53
2023-02-07T00:53:23.543Z,6.95
2023-02-07T00:55:50.250Z,6.57
2023-02-07T00:58:17.092Z,6.05
2023-02-07T01:00:43.749Z,6.68
2023-02-07T01:03:10.356Z,6.22
2023-02-07T01:05:37.408Z,6.22
2023-02-07T01:08:04.582Z,6.27
2023-02-07T01:10:31.870Z,6.18
2023-02-07T01:12:58.906Z,6.30
2023-02-07T01:15:26.369Z,6.15
2023-02-07T01:17:52.974Z,7.25
2023-02-07T01:20:19.729Z,6.57
2023-02-07T01:22:46.359Z,7.25
2023-02-07T01:25:13.006Z,5.82
2023-02-07T01:27:39.579Z,6.95
2023-02-07T01:30:06.472Z,6.00
2023-02-07T01:32:33.907Z,6.30
2023-02-07T01:35:00.762Z,5.70
2023-02-07T01:37:27.556Z,6.80
2023-02-07T01:39:55.034Z,5.85
2023-02-07T01:42:24.587Z,6.78
2023-02-07T01:44:51.076Z,8.93
2023-02-07T01:47:23.692Z,6.88
2023-02-07T01:49:55.576Z,6.88
2023-02-07T01:52:26.868Z,7.20
2023-02-07T01:54:58.133Z,7.60
2023-02-07T01:57:25.569Z,7.70
2023-02-07T01:59:54.297Z,7.40
2023-02-07T02:02:23.112Z,6.07
2023-02-07T02:04:54.933Z,6.28
2023-02-07T02:07:23.005Z,6.47
2023-02-07T02:09:49.601Z,6.37
2023-02-07T02:12:55.652Z,7.45
2023-02-07T02:15:37.901Z,7.72
2023-02-07T02:18:38.521Z,6.88
2023-02-07T02:21:22.036Z,6.63
2023-02-07T02:24:29.461Z,8.10
2023-02-07T02:27:09.834Z,6.55
2023-02-07T02:29:54.472Z,6.85
2023-02-07T02:32:36.001Z,6.63
2023-02-07T02:35:19.745Z,6.15
2023-02-07T02:38:03.221Z,6.43
2023-02-07T02:40:51.782Z,7.35
2023-02-07T02:43:31.820Z,6.45
2023-02-07T02:46:03.440Z,7.07
2023-02-07T02:48:31.190Z,6.80
2023-02-07T02:50:58.457Z,7.00
2023-02-07T02:53:25.033Z,6.95
2023-02-07T02:56:18.703Z,6.82
2023-02-07T02:59:13.294Z,6.97
2023-02-07T03:02:02.693Z,6.80
2023-02-07T03:04:39.094Z,7.57
2023-02-07T03:07:23.488Z,6.75
2023-02-07T03:10:28.488Z,7.00
2023-02-07T03:12:58.200Z,6.13
2023-02-07T03:15:50.705Z,7.15
2023-02-07T03:18:43.234Z,7.60
2023-02-07T03:21:24.605Z,7.05
2023-02-07T03:23:53.845Z,7.80
2023-02-07T03:26:23.312Z,6.88
2023-02-07T03:28:51.441Z,7.57
2023-02-07T03:31:21.777Z,7.30
2023-02-07T03:33:51.251Z,6.95
2023-02-07T03:36:28.621Z,7.75
2023-02-07T03:38:55.263Z,6.57
2023-02-07T03:41:33.845Z,8.32
2023-02-07T03:44:06.955Z,7.97
2023-02-07T03:46:37.888Z,7.18
2023-02-07T03:49:05.446Z,6.72
2023-02-07T03:51:32.001Z,6.63
2023-02-07T03:53:58.608Z,6.40
2023-02-07T03:56:25.355Z,6.63
2023-02-07T03:58:52.188Z,7.03
2023-02-07T04:01:18.873Z,7.25
2023-02-07T04:03:45.599Z,6.90
2023-02-07T04:06:12.301Z,7.70
2023-02-07T04:08:38.903Z,7.37
2023-02-07T04:11:05.612Z,7.18
2023-02-07T04:13:32.224Z,7.32
2023-02-07T04:15:59.302Z,6.93
2023-02-07T04:18:25.973Z,7.82
2023-02-07T04:21:00.975Z,6.90
2023-02-07T04:23:27.615Z,6.78
2023-02-07T04:25:54.183Z,7.32
2023-02-07T04:28:20.813Z,7.38
2023-02-07T04:30:47.469Z,7.13
2023-02-07T04:33:14.085Z,7.37
2023-02-07T04:35:40.712Z,7.15
2023-02-07T04:38:07.299Z,6.97
2023-02-07T04:40:34.015Z,6.68
2023-02-07T04:43:00.590Z,6.85
2023-02-07T04:45:27.195Z,7.23
2023-02-07T04:47:53.776Z,7.00
2023-02-07T04:50:20.388Z,7.10
2023-02-07T04:52:47.033Z,6.50
2023-02-07T04:55:13.621Z,7.20
2023-02-07T04:57:40.197Z,6.80
2023-02-07T05:00:07.042Z,6.53
2023-02-07T05:02:33.686Z,7.40
2023-02-07T05:05:00.261Z,7.55
2023-02-07T05:07:26.852Z,7.10
2023-02-07T05:09:53.708Z,7.37
2023-02-07T05:12:20.377Z,6.65
2023-02-07T05:14:46.974Z,6.80
2023-02-07T05:17:13.596Z,7.47
2023-02-07T05:19:40.179Z,7.80
2023-02-07T05:22:06.766Z,6.83
2023-02-07T05:24:33.522Z,8.40
2023-02-07T05:27:00.141Z,6.78
2023-02-07T05:29:26.848Z,7.45
2023-02-07T05:32:12.693Z,7.55
2023-02-07T05:34:39.277Z,7.57
2023-02-07T05:37:05.858Z,6.75
2023-02-07T05:39:32.436Z,7.75
2023-02-07T05:41:59.109Z,6.78
2023-02-07T05:44:25.706Z,7.63
2023-02-07T05:46:52.743Z,7.37
2023-02-07T05:49:19.417Z,8.07
2023-02-07T05:51:46.026Z,8.50
2023-02-07T05:54:12.651Z,6.88
2023-02-07T05:56:39.255Z,8.27
2023-02-07T05:59:05.950Z,7.33
2023-02-07T06:01:32.570Z,7.18
2023-02-07T06:03:59.172Z,7.75
2023-02-07T06:06:25.779Z,7.63
2023-02-07T06:08:52.384Z,7.45
2023-02-07T06:11:18.950Z,7.80
2023-02-07T06:13:45.580Z,7.60
2023-02-07T06:16:12.568Z,7.90
2023-02-07T06:18:39.279Z,7.28
2023-02-07T06:21:06.084Z,7.88
2023-02-07T06:23:32.671Z,7.13
2023-02-07T06:25:59.273Z,8.32
2023-02-07T06:28:25.873Z,8.32
2023-02-07T06:30:53.371Z,7.45
2023-02-07T06:33:20.149Z,6.60
2023-02-07T06:35:47.485Z,7.17
2023-02-07T06:38:18.173Z,8.55
2023-02-07T06:40:45.285Z,7.43
2023-02-07T06:43:12.396Z,9.77
2023-02-07T06:45:39.255Z,7.82
2023-02-07T06:48:06.606Z,8.13
2023-02-07T06:50:33.671Z,8.55
2023-02-07T06:53:02.126Z,9.00
2023-02-07T06:55:29.808Z,7.72
2023-02-07T06:57:56.571Z,7.35
2023-02-07T07:00:24.809Z,10.20
2023-02-07T07:02:51.466Z,7.20
2023-02-07T07:05:18.073Z,8.18
2023-02-07T07:07:44.874Z,9.38
2023-02-07T07:10:11.517Z,8.35
2023-02-07T07:12:38.111Z,8.07
2023-02-07T07:15:05.238Z,10.20
2023-02-07T07:17:31.857Z,7.22
2023-02-07T07:19:59.784Z,9.55
2023-02-07T07:22:26.628Z,9.20
2023-02-07T07:24:53.195Z,8.10
2023-02-07T07:27:19.754Z,7.60
2023-02-07T07:29:47.184Z,7.78
2023-02-07T07:35:00.558Z,8.32
2023-02-07T07:37:27.142Z,8.57
2023-02-07T07:39:53.794Z,7.28
2023-02-07T07:42:20.388Z,7.32
2023-02-07T07:44:47.002Z,8.57
2023-02-07T07:47:13.854Z,7.47
2023-02-07T07:49:40.718Z,7.77
2023-02-07T07:52:07.540Z,7.85
2023-02-07T07:54:34.122Z,6.95
2023-02-07T07:57:00.745Z,8.10
2023-02-07T07:59:27.493Z,8.77
2023-02-07T08:01:54.068Z,7.43
2023-02-07T08:04:20.664Z,9.05
2023-02-07T08:06:47.251Z,8.52
2023-02-07T08:09:13.968Z,8.57
2023-02-07T08:11:40.560Z,8.05
2023-02-07T08:14:07.170Z,7.67
2023-02-07T08:16:33.878Z,7.18
2023-02-07T08:19:00.468Z,8.32
2023-02-07T08:21:27.068Z,8.07
2023-02-07T08:23:57.183Z,8.60
2023-02-07T08:26:23.766Z,8.80
2023-02-07T08:28:52.394Z,8.35
2023-02-07T08:31:19.305Z,7.70
2023-02-07T08:33:45.998Z,7.95
2023-02-07T08:36:13.008Z,8.35
2023-02-07T08:38:39.625Z,8.27
2023-02-07T08:41:06.298Z,8.32
2023-02-07T08:43:32.909Z,8.48
2023-02-07T08:46:00.770Z,8.88
2023-02-07T08:48:27.641Z,8.00
2023-02-07T08:50:54.519Z,8.30
2023-02-07T08:53:21.489Z,7.85
2023-02-07T08:55:48.458Z,8.45
2023-02-07T08:58:15.069Z,8.10
2023-02-07T09:00:42.113Z,7.93
2023-02-07T09:03:09.003Z,9.60
2023-02-07T09:05:35.682Z,7.70
2023-02-07T09:08:03.043Z,8.48
2023-02-07T09:10:29.836Z,7.63
2023-02-07T09:12:56.429Z,8.75
2023-02-07T09:15:23.016Z,8.87
2023-02-07T09:17:49.726Z,8.93
2023-02-07T09:20:16.346Z,8.60
2023-02-07T09:23:12.481Z,7.72
2023-02-07T09:25:40.791Z,7.68
2023-02-07T09:28:08.706Z,9.47
2023-02-07T09:30:35.696Z,7.45
2023-02-07T09:33:02.495Z,8.57
2023-02-07T09:35:29.093Z,7.80
2023-02-07T09:37:56.117Z,8.20
2023-02-07T09:40:23.505Z,7.60
2023-02-07T09:43:08.986Z,7.70
2023-02-07T09:45:40.679Z,8.63
2023-02-07T09:48:17.842Z,8.48
2023-02-07T09:50:57.232Z,9.25
2023-02-07T09:53:28.841Z,8.93
2023-02-07T09:56:01.196Z,7.10
2023-02-07T09:58:41.018Z,8.80
2023-02-07T10:01:24.218Z,8.13
2023-02-07T10:04:01.947Z,8.48
2023-02-07T10:06:30.126Z,8.17
2023-02-07T10:08:59.898Z,9.38
2023-02-07T10:11:42.749Z,8.88
2023-02-07T10:14:34.883Z,8.15
2023-02-07T10:17:07.118Z,8.65
2023-02-07T10:19:36.695Z,9.60
2023-02-07T10:22:24.448Z,9.30
2023-02-07T10:25:07.049Z,8.13
2023-02-07T10:27:48.038Z,9.10
2023-02-07T10:30:23.654Z,8.27
2023-02-07T10:32:52.117Z,8.70
2023-02-07T10:35:28.448Z,8.40
2023-02-07T10:37:59.519Z,7.75
2023-02-07T10:40:34.964Z,8.93
2023-02-07T10:43:19.758Z,7.93
2023-02-07T10:45:51.885Z,8.27
2023-02-07T10:48:20.952Z,8.30
2023-02-07T10:50:47.778Z,8.95
2023-02-07T10:53:54.318Z,8.52
2023-02-07T10:56:26.990Z,8.32
2023-02-07T10:58:56.327Z,8.57
2023-02-07T11:01:31.880Z,9.68
2023-02-07T11:03:58.622Z,10.27
2023-02-07T11:06:27.568Z,8.38
2023-02-07T11:09:12.730Z,7.90
2023-02-07T11:11:40.766Z,8.20
2023-02-07T11:14:15.525Z,9.25
2023-02-07T11:16:45.546Z,8.20
2023-02-07T11:19:20.471Z,7.95
2023-02-07T11:21:49.221Z,8.02
2023-02-07T11:24:19.676Z,9.10
2023-02-07T11:27:06.758Z,7.97
2023-02-07T11:29:44.185Z,7.85
2023-02-07T11:32:15.037Z,9.10
2023-02-07T11:34:46.612Z,8.43
2023-02-07T11:37:27.360Z,7.57
2023-02-07T11:40:16.037Z,7.45
2023-02-07T11:42:43.020Z,8.38
2023-02-07T11:45:15.562Z,8.18
2023-02-07T11:47:45.221Z,7.45
2023-02-07T11:50:20.858Z,8.20
2023-02-07T11:52:56.683Z,8.27
2023-02-07T11:55:34.307Z,8.25
2023-02-07T11:58:17.813Z,8.57
2023-02-07T12:00:45.191Z,8.05
2023-02-07T12:03:41.289Z,8.13
2023-02-07T12:06:14.320Z,8.23
2023-02-07T12:08:41.581Z,7.97
2023-02-07T12:11:17.450Z,8.05
2023-02-07T12:13:52.634Z,7.78
2023-02-07T12:16:42.134Z,7.93
2023-02-07T12:19:19.186Z,8.07
2023-02-07T12:22:07.604Z,7.90
2023-02-07T12:24:43.173Z,8.57
2023-02-07T12:27:16.675Z,8.40
2023-02-07T12:30:12.930Z,7.80
2023-02-07T12:32:54.681Z,8.13
2023-02-07T12:35:58.856Z,7.72
2023-02-07T12:38:32.775Z,8.00
2023-02-07T12:41:18.598Z,7.50
2023-02-07T12:44:09.563Z,7.67
2023-02-07T12:46:36.870Z,7.93
2023-02-07T12:49:28.499Z,8.70
2023-02-07T12:52:40.471Z,7.60
2023-02-07T12:55:20.632Z,7.40
2023-02-07T12:57:56.438Z,7.80
2023-02-07T13:00:26.138Z,8.10
2023-02-07T13:03:14.654Z,7.03
2023-02-07T13:05:47.918Z,7.63
2023-02-07T13:08:33.982Z,6.82
2023-02-07T13:11:08.904Z,7.40
2023-02-07T13:13:54.034Z,7.50
2023-02-07T13:16:27.485Z,7.63
2023-02-07T13:19:44.161Z,7.03
2023-02-07T13:22:36.458Z,7.13
2023-02-07T13:25:07.778Z,7.10
2023-02-07T13:27:36.587Z,7.90
2023-02-07T13:30:03.546Z,7.95
2023-02-07T13:32:30.154Z,7.13
2023-02-07T13:35:05.746Z,6.65
2023-02-07T13:37:59.260Z,7.60
2023-02-07T13:40:58.933Z,7.85
2023-02-07T13:44:10.351Z,6.70
2023-02-07T13:47:14.557Z,7.05
2023-02-07T13:49:47.772Z,7.28
2023-02-07T13:52:55.236Z,7.37
2023-02-07T13:55:40.137Z,6.50
2023-02-07T13:58:51.643Z,7.40
2023-02-07T14:01:24.390Z,6.97
2023-02-07T14:04:09.240Z,6.63
2023-02-07T14:06:42.702Z,7.57
2023-02-07T14:09:15.401Z,7.50
2023-02-07T14:11:44.723Z,7.82
2023-02-07T14:14:27.651Z,7.28
2023-02-07T14:17:00.225Z,7.50
2023-02-07T14:19:43.176Z,6.60
2023-02-07T14:22:31.226Z,7.55
2023-02-07T14:25:03.565Z,6.90
2023-02-07T14:27:31.868Z,7.72
2023-02-07T14:30:01.491Z,7.35
2023-02-07T14:32:39.024Z,7.00
2023-02-07T14:35:17.439Z,7.07
2023-02-07T14:37:51.586Z,6.43
2023-02-07T14:40:32.951Z,7.03
2023-02-07T14:43:03.831Z,7.93
2023-02-07T14:45:33.480Z,7.37
2023-02-07T14:48:00.917Z,7.50
2023-02-07T14:50:33.982Z,7.90
2023-02-07T14:53:04.585Z,7.95
2023-02-07T14:55:41.074Z,6.78
2023-02-07T14:58:19.894Z,7.70
2023-02-07T15:00:51.048Z,7.45
2023-02-07T15:03:20.568Z,7.50
2023-02-07T15:05:53.967Z,6.47
2023-02-07T15:08:23.666Z,7.30
2023-02-07T15:11:04.237Z,6.57
2023-02-07T15:13:39.180Z,6.95
2023-02-07T15:16:07.090Z,7.07
2023-02-07T15:18:39.037Z,7.03
2023-02-07T15:21:07.153Z,7.32
2023-02-07T15:23:33.811Z,7.37
2023-02-07T15:26:06.136Z,7.65
2023-02-07T15:28:33.347Z,6.60
2023-02-07T15:31:10.531Z,6.78
2023-02-07T15:34:05.383Z,7.00
2023-02-07T15:36:37.962Z,7.20
2023-02-07T15:39:07.831Z,7.72
2023-02-07T15:41:34.976Z,6.75
2023-02-07T15:44:07.242Z,7.28
2023-02-07T15:46:55.734Z,6.88
2023-02-07T15:49:35.514Z,6.73
2023-02-07T15:52:14.413Z,6.78
2023-02-07T15:54:47.003Z,6.40
2023-02-07T15:57:25.625Z,6.82
2023-02-07T15:59:55.545Z,8.05
2023-02-07T16:02:31.612Z,7.20
2023-02-07T16:04:59.661Z,6.57
2023-02-07T16:07:27.206Z,6.55
2023-02-07T16:09:54.019Z,5.97
2023-02-07T16:12:33.343Z,6.15
2023-02-07T16:15:01.929Z,6.83
2023-02-07T16:17:44.143Z,6.82
2023-02-07T16:20:14.612Z,6.20
2023-02-07T16:22:43.910Z,6.47
2023-02-07T16:25:22.095Z,6.13
2023-02-07T16:27:51.838Z,7.03
2023-02-07T16:30:23.544Z,6.93
2023-02-07T16:32:50.524Z,6.40
2023-02-07T16:35:20.878Z,7.05
2023-02-07T16:37:47.866Z,6.18
2023-02-07T16:40:15.474Z,6.07
2023-02-07T16:42:42.628Z,6.70
2023-02-07T16:45:17.147Z,6.63
2023-02-07T16:47:44.429Z,6.13
2023-02-07T16:50:19.004Z,7.72
2023-02-07T16:52:47.531Z,7.40
2023-02-07T16:55:14.338Z,7.47
2023-02-07T16:57:42.553Z,8.15
2023-02-07T17:00:13.906Z,8.07
2023-02-07T17:02:40.653Z,6.20
2023-02-07T17:05:07.583Z,6.60
2023-02-07T17:07:34.233Z,9.18
2023-02-07T17:10:00.971Z,12.80
2023-02-07T17:12:27.576Z,10.73
2023-02-07T17:14:54.262Z,11.02
2023-02-07T17:17:20.964Z,10.63
2023-02-07T17:19:48.817Z,9.55
2023-02-07T17:22:15.508Z,9.68
2023-02-07T17:24:42.195Z,10.07
2023-02-07T17:27:10.580Z,11.20
2023-02-07T17:29:37.228Z,11.77
2023-02-07T17:32:03.996Z,13.05
2023-02-07T17:34:30.581Z,17.08
2023-02-07T17:36:57.280Z,16.73
2023-02-07T17:39:24.040Z,20.48
2023-02-07T17:41:50.721Z,18.53
2023-02-07T17:44:21.365Z,16.35
2023-02-07T17:46:48.440Z,20.42
2023-02-07T17:49:16.588Z,16.45
2023-02-07T17:51:43.337Z,17.00
2023-02-07T17:54:09.973Z,15.43
2023-02-07T17:56:36.638Z,15.65
2023-02-07T17:59:05.372Z,14.60
2023-02-07T18:01:32.955Z,16.50
2023-02-07T18:04:00.141Z,13.48
2023-02-07T18:06:29.362Z,15.30
2023-02-07T18:08:58.602Z,11.85
2023-02-07T18:11:27.311Z,13.80
2023-02-07T18:13:56.866Z,14.30
2023-02-07T18:16:26.262Z,12.35
2023-02-07T18:18:55.045Z,11.23
2023-02-07T18:21:21.829Z,12.60
2023-02-07T18:23:48.563Z,10.73
2023-02-07T18:26:16.686Z,10.15
2023-02-07T18:28:43.750Z,12.55
2023-02-07T18:31:16.256Z,10.37
2023-02-07T18:33:43.386Z,9.98
2023-02-07T18:36:10.294Z,11.10
2023-02-07T18:38:37.315Z,10.32
2023-02-07T18:41:14.600Z,10.00
2023-02-07T18:43:42.493Z,10.00
2023-02-07T18:46:15.054Z,9.43
2023-02-07T18:48:42.017Z,10.15
2023-02-07T18:51:10.962Z,8.95
2023-02-07T18:53:38.460Z,10.35
2023-02-07T18:56:11.551Z,10.10
2023-02-07T18:58:38.710Z,9.82
2023-02-07T19:01:13.041Z,8.77
2023-02-07T19:03:39.598Z,9.93
2023-02-07T19:06:07.964Z,8.93
2023-02-07T19:08:35.078Z,9.53
2023-02-07T19:11:04.801Z,8.60
2023-02-07T19:13:33.138Z,8.25
2023-02-07T19:16:07.944Z,10.02
2023-02-07T19:18:35.102Z,8.00
2023-02-07T19:21:13.513Z,8.67
2023-02-07T19:23:41.059Z,8.48
2023-02-07T19:26:08.754Z,7.43
2023-02-07T19:28:36.840Z,7.38
2023-02-07T19:31:04.604Z,8.13
2023-02-07T19:33:31.205Z,6.87
2023-02-07T19:36:03.101Z,7.45
2023-02-07T19:38:29.681Z,8.63
2023-02-07T19:40:57.483Z,7.57
2023-02-07T19:43:24.275Z,7.68
2023-02-07T19:45:50.940Z,7.53
2023-02-07T19:48:17.580Z,7.50
2023-02-07T19:50:45.134Z,7.13
2023-02-07T19:53:11.872Z,7.38
2023-02-07T19:55:38.955Z,7.20
2023-02-07T19:58:05.619Z,7.37
2023-02-07T20:00:32.386Z,6.97
2023-02-07T20:02:59.322Z,7.40
2023-02-07T20:05:26.865Z,6.85
2023-02-07T20:07:54.034Z,7.32
2023-02-07T20:10:20.650Z,7.20
2023-02-07T20:12:48.332Z,6.57
2023-02-07T20:15:14.942Z,6.45
2023-02-07T20:17:41.658Z,6.05
2023-02-07T20:20:08.943Z,6.78
2023-02-07T20:22:35.537Z,7.37
2023-02-07T20:25:02.228Z,6.65
2023-02-07T20:27:28.809Z,8.88
2023-02-07T20:29:55.408Z,6.40
2023-02-07T20:32:22.058Z,6.75
2023-02-07T20:34:48.783Z,7.67
2023-02-07T20:37:15.450Z,6.32
2023-02-07T20:39:42.008Z,6.10
2023-02-07T20:42:08.649Z,6.40
2023-02-07T20:44:35.223Z,6.65
2023-02-07T20:47:01.810Z,6.20
2023-02-07T20:49:30.736Z,6.63
2023-02-07T20:51:59.002Z,6.57
2023-02-07T20:54:27.823Z,7.30
2023-02-07T20:56:55.260Z,5.38
2023-02-07T20:59:25.040Z,7.20
2023-02-07T21:01:52.183Z,6.10
2023-02-07T21:04:19.083Z,6.18
2023-02-07T21:06:45.763Z,5.93
2023-02-07T21:09:13.520Z,5.78
2023-02-07T21:11:45.634Z,6.73
2023-02-07T21:14:30.236Z,6.85
2023-02-07T21:16:59.393Z,6.45
2023-02-07T21:19:26.043Z,6.15
2023-02-07T21:21:55.051Z,6.13
2023-02-07T21:24:21.963Z,6.60
2023-02-07T21:26:49.292Z,6.93
2023-02-07T21:29:16.645Z,6.35
2023-02-07T21:31:43.369Z,6.13
2023-02-07T21:34:10.011Z,6.38
2023-02-07T21:36:39.901Z,5.83
2023-02-07T21:39:10.477Z,5.80
2023-02-07T21:41:39.511Z,5.65
2023-02-07T21:44:06.462Z,6.90
2023-02-07T21:46:36.436Z,6.65
2023-02-07T21:49:06.479Z,6.50
2023-02-07T21:51:35.257Z,6.32
2023-02-07T21:54:03.639Z,5.40
2023-02-07T21:56:32.766Z,6.25
2023-02-07T21:59:02.056Z,6.28
2023-02-07T22:01:30.088Z,6.10
2023-02-07T22:03:59.734Z,5.78
2023-02-07T22:06:26.814Z,5.72
2023-02-07T22:08:58.972Z,5.80
2023-02-07T22:11:28.181Z,6.28
2023-02-07T22:13:55.158Z,6.17
2023-02-07T22:16:23.535Z,5.60
2023-02-07T22:18:53.074Z,6.18
2023-02-07T22:21:29.202Z,5.85
2023-02-07T22:23:57.387Z,5.95
2023-02-07T22:26:24.759Z,5.60
2023-02-07T22:28:51.968Z,5.80
2023-02-07T22:31:24.995Z,5.40
2023-02-07T22:33:54.392Z,6.60
2023-02-07T22:36:24.178Z,5.68
2023-02-07T22:38:51.465Z,6.10
2023-02-07T22:41:19.128Z,5.78
2023-02-07T22:43:45.801Z,6.07
2023-02-07T22:46:16.445Z,6.10
2023-02-07T22:48:43.624Z,6.88
2023-02-07T22:51:17.998Z,6.40
2023-02-07T22:53:44.762Z,6.43
2023-02-07T22:56:11.811Z,6.50
2023-02-07T22:58:38.751Z,6.07
2023-02-07T23:01:06.318Z,5.90
2023-02-07T23:03:34.415Z,5.50
2023-02-07T23:06:05.290Z,5.95
2023-02-07T23:08:31.896Z,6.10
2023-02-07T23:10:58.526Z,5.68
2023-02-07T23:13:25.101Z,6.03
2023-02-07T23:15:53.883Z,5.73
2023-02-07T23:18:20.744Z,5.75
2023-02-07T23:20:47.556Z,5.82
2023-02-07T23:23:14.173Z,6.05
2023-02-07T23:25:44.928Z,5.78
2023-02-07T23:28:12.786Z,6.03
2023-02-07T23:30:40.416Z,5.82
2023-02-07T23:33:09.116Z,6.03
2023-02-07T23:35:35.975Z,6.90
2023-02-07T23:38:06.559Z,5.57
2023-02-07T23:40:33.319Z,6.40
2023-02-07T23:42:59.939Z,5.88
2023-02-07T23:45:26.543Z,6.70
2023-02-07T23:47:53.805Z,5.50
2023-02-07T23:50:22.291Z,5.68
2023-02-07T23:52:48.884Z,6.30
2023-02-07T23:55:15.570Z,6.30
2023-02-07T23:57:42.139Z,6.15
